Time;durP1;ratioP1;P1;durP2;ratioP2;P2;SDS_P1;SDS_P2;PMS_P1;PMS_P2;Temp;Humidity;BMP_temperature;BMP_pressure;BME280_temperature;BME280_humidity;BME280_pressure;Samples;Min_cycle;Max_cycle;Signal;HPM_P1;HPM_P2
2023/06/19 00:01:02;;;;;;;14.60;8.20;;;;;;;-128.00;-1.00;-1.00;102800;1302;1011062;-73
2023/06/19 00:03:52;;;;;;;13.20;7.30;;;;;;;-128.00;-1.00;-1.00;102923;1301;1010687;-71
2023/06/19 00:06:38;;;;;;;13.40;8.50;;;;;;;-128.00;-1.00;-1.00;102751;1302;1012852;-74
2023/06/19 00:09:24;;;;;;;13.90;8.50;;;;;;;-128.00;-1.00;-1.00;102615;1307;1012324;-75
2023/06/19 00:12:11;;;;;;;14.70;8.60;;;;;;;-128.00;-1.00;-1.00;102508;1302;1013357;-71
2023/06/19 00:14:57;;;;;;;14.80;7.90;;;;;;;-128.00;-1.00;-1.00;102658;1299;1009634;-71
2023/06/19 00:17:46;;;;;;;13.60;8.10;;;;;;;-128.00;-1.00;-1.00;102958;1299;1011204;-71
2023/06/19 00:20:34;;;;;;;;;;;;;;;-128.00;-1.00;-1.00;102976;1299;1012636;-71
2023/06/19 00:23:20;;;;;;;13.40;8.50;;;;;;;-128.00;-1.00;-1.00;102939;1299;1012359;-72
2023/06/19 00:26:06;;;;;;;;;;;;;;;-128.00;-1.00;-1.00;102787;1302;1012369;-71
2023/06/19 00:28:53;;;;;;;14.30;9.20;;;;;;;-128.00;-1.00;-1.00;102841;1299;1010096;-69
2023/06/19 00:31:39;;;;;;;13.10;8.10;;;;;;;-128.00;-1.00;-1.00;102968;1297;1011517;-71
2023/06/19 00:34:31;;;;;;;13.70;8.90;;;;;;;-128.00;-1.00;-1.00;103099;1296;1013161;-71
2023/06/19 00:37:31;;;;;;;18.60;10.40;;;;;;;-128.00;-1.00;-1.00;103132;1293;1012842;-72
2023/06/19 00:40:31;;;;;;;16.70;10.30;;;;;;;-128.00;-1.00;-1.00;103047;1296;1012699;-70
2023/06/19 00:43:18;;;;;;;17.50;11.20;;;;;;;-128.00;-1.00;-1.00;103070;1296;1010453;-70
2023/06/19 00:46:06;;;;;;;17.20;11.20;;;;;;;-128.00;-1.00;-1.00;103058;1297;1010343;-71
2023/06/19 00:48:52;;;;;;;15.70;10.60;;;;;;;-128.00;-1.00;-1.00;103129;1296;1012552;-69
2023/06/19 00:51:39;;;;;;;19.10;11.80;;;;;;;-128.00;-1.00;-1.00;103123;1296;1013168;-71
2023/06/19 00:54:26;;;;;;;19.90;11.10;;;;;;;-128.00;-1.00;-1.00;103222;1296;1013068;-73
2023/06/19 00:57:12;;;;;;;17.10;10.40;;;;;;;-128.00;-1.00;-1.00;103225;1294;1009835;-71
2023/06/19 00:59:59;;;;;;;19.60;11.70;;;;;;;-128.00;-1.00;-1.00;103240;1293;1011154;-71
2023/06/19 01:02:47;;;;;;;19.70;11.50;;;;;;;-128.00;-1.00;-1.00;103369;1292;1012913;-73
2023/06/19 01:05:36;;;;;;;16.80;11.00;;;;;;;-128.00;-1.00;-1.00;103360;1292;1012525;-71
2023/06/19 01:08:58;;;;;;;18.20;11.60;;;;;;;-128.00;-1.00;-1.00;103272;1293;1012681;-73
2023/06/19 01:11:57;;;;;;;16.20;10.60;;;;;;;-128.00;-1.00;-1.00;103289;1293;1009549;-72
2023/06/19 01:14:59;;;;;;;17.80;10.80;;;;;;;-128.00;-1.00;-1.00;103336;1294;1011603;-71
2023/06/19 01:17:47;;;;;;;19.40;10.50;;;;;;;-128.00;-1.00;-1.00;103506;1292;1011791;-72
2023/06/19 01:20:34;;;;;;;15.50;9.80;;;;;;;-128.00;-1.00;-1.00;103230;1292;1011887;-72
2023/06/19 01:23:20;;;;;;;16.10;9.80;;;;;;;-128.00;-1.00;-1.00;103390;1290;1012535;-70
2023/06/19 01:26:08;;;;;;;13.60;8.90;;;;;;;-128.00;-1.00;-1.00;103704;1289;1010156;-69
2023/06/19 01:28:54;;;;;;;19.20;9.70;;;;;;;-128.00;-1.00;-1.00;103733;1289;1010831;-70
2023/06/19 01:31:58;;;;;;;18.00;11.00;;;;;;;-128.00;-1.00;-1.00;103688;1289;1013120;-71
2023/06/19 01:34:47;;;;;;;17.00;9.10;;;;;;;-128.00;-1.00;-1.00;103618;1289;1013326;-72
2023/06/19 01:37:40;;;;;;;17.90;10.20;;;;;;;-128.00;-1.00;-1.00;103707;1289;1013480;-68
2023/06/19 01:40:31;;;;;;;16.30;10.10;;;;;;;-128.00;-1.00;-1.00;103478;1293;1010176;-73
2023/06/19 01:43:19;;;;;;;17.00;22.60;;;;;;;-128.00;-1.00;-1.00;103097;1296;1010479;-68
2023/06/19 01:46:06;;;;;;;10.50;5.40;;;;;;;-128.00;-1.00;-1.00;103024;1296;1012690;-69
2023/06/19 01:48:53;;;;;;;17.70;10.30;;;;;;;-128.00;-1.00;-1.00;103170;1299;1012685;-69
2023/06/19 01:51:40;;;;;;;16.20;9.80;;;;;;;-128.00;-1.00;-1.00;103177;1296;1013797;-68
2023/06/19 01:54:27;;;;;;;14.40;8.90;;;;;;;-128.00;-1.00;-1.00;102979;1296;1010280;-70
2023/06/19 01:57:18;;;;;;;16.50;10.30;;;;;;;-128.00;-1.00;-1.00;103042;1296;1011457;-69
2023/06/19 02:00:10;;;;;;;15.30;9.10;;;;;;;-128.00;-1.00;-1.00;103068;1296;1013453;-71
2023/06/19 02:03:02;;;;;;;19.40;10.50;;;;;;;-128.00;-1.00;-1.00;103371;1296;1011228;-68
2023/06/19 02:05:50;;;;;;;15.60;10.20;;;;;;;-128.00;-1.00;-1.00;103279;1296;1012191;-71
2023/06/19 02:08:36;;;;;;;11.70;7.50;;;;;;;-128.00;-1.00;-1.00;103292;1296;1010210;-70
2023/06/19 02:11:23;;;;;;;16.90;10.20;;;;;;;-128.00;-1.00;-1.00;103369;1293;1010132;-66
2023/06/19 02:14:13;;;;;;;17.20;10.00;;;;;;;-128.00;-1.00;-1.00;103496;1289;1013134;-69
2023/06/19 02:17:01;;;;;;;15.90;10.40;;;;;;;-128.00;-1.00;-1.00;103579;1289;1012940;-68
2023/06/19 02:19:47;;;;;;;16.50;9.90;;;;;;;-128.00;-1.00;-1.00;103640;1289;1012450;-70
2023/06/19 02:22:33;;;;;;;15.60;9.70;;;;;;;-128.00;-1.00;-1.00;103618;1289;1009822;-70
2023/06/19 02:25:20;;;;;;;16.30;10.30;;;;;;;-128.00;-1.00;-1.00;103672;1289;1010966;-68
2023/06/19 02:28:06;;;;;;;15.00;10.30;;;;;;;-128.00;-1.00;-1.00;103798;1289;1011961;-70
2023/06/19 02:30:54;;;;;;;14.80;9.60;;;;;;;-128.00;-1.00;-1.00;103622;1290;1012773;-72
2023/06/19 02:33:40;;;;;;;15.10;8.80;;;;;;;-128.00;-1.00;-1.00;103614;1290;1011973;-70
2023/06/19 02:36:27;;;;;;;16.40;9.90;;;;;;;-128.00;-1.00;-1.00;103572;1289;1010058;-70
2023/06/19 02:39:13;;;;;;;16.60;9.40;;;;;;;-128.00;-1.00;-1.00;103636;1290;1010839;-71
2023/06/19 02:42:02;;;;;;;12.90;8.30;;;;;;;-128.00;-1.00;-1.00;103615;1290;1013008;-70
2023/06/19 02:44:49;;;;;;;15.80;9.70;;;;;;;-128.00;-1.00;-1.00;103533;1289;1012382;-69
2023/06/19 02:47:36;;;;;;;14.10;9.00;;;;;;;-128.00;-1.00;-1.00;103613;1289;1013628;-72
2023/06/19 02:50:23;;;;;;;16.70;10.50;;;;;;;-128.00;-1.00;-1.00;103689;1289;1010741;-70
2023/06/19 02:53:11;;;;;;;15.30;10.30;;;;;;;-128.00;-1.00;-1.00;103645;1289;1010362;-71
2023/06/19 02:55:57;;;;;;;15.60;9.60;;;;;;;-128.00;-1.00;-1.00;103566;1289;1012431;-71
2023/06/19 02:58:43;;;;;;;16.00;10.10;;;;;;;-128.00;-1.00;-1.00;103652;1295;1012794;-74
2023/06/19 03:01:33;;;;;;;15.30;10.10;;;;;;;-128.00;-1.00;-1.00;103620;1289;1012726;-73
2023/06/19 03:04:21;;;;;;;14.20;9.20;;;;;;;-128.00;-1.00;-1.00;103655;1289;1010471;-73
2023/06/19 03:07:08;;;;;;;15.20;9.50;;;;;;;-128.00;-1.00;-1.00;103509;1291;1011184;-72
2023/06/19 03:09:57;;;;;;;16.50;8.70;;;;;;;-128.00;-1.00;-1.00;103605;1290;1012720;-69
2023/06/19 03:12:44;;;;;;;16.00;9.20;;;;;;;-128.00;-1.00;-1.00;103622;1290;1013634;-72
2023/06/19 03:15:32;;;;;;;15.80;9.60;;;;;;;-128.00;-1.00;-1.00;103615;1290;1012096;-71
2023/06/19 03:18:19;;;;;;;14.50;9.10;;;;;;;-128.00;-1.00;-1.00;103594;1289;1010277;-73
2023/06/19 03:21:06;;;;;;;15.00;9.10;;;;;;;-128.00;-1.00;-1.00;103677;1289;1011072;-69
2023/06/19 03:23:52;;;;;;;15.00;9.00;;;;;;;-128.00;-1.00;-1.00;103518;1289;1012848;-73
2023/06/19 03:26:41;;;;;;;11.50;6.50;;;;;;;-128.00;-1.00;-1.00;103626;1289;1012993;-70
2023/06/19 03:29:27;;;;;;;17.30;9.80;;;;;;;-128.00;-1.00;-1.00;103693;1289;1013141;-70
2023/06/19 03:32:23;;;;;;;17.60;10.40;;;;;;;-128.00;-1.00;-1.00;103647;1289;1009513;-72
2023/06/19 03:35:10;;;;;;;15.80;10.00;;;;;;;-128.00;-1.00;-1.00;103639;1289;1011440;-72
2023/06/19 03:38:01;;;;;;;15.90;10.50;;;;;;;-128.00;-1.00;-1.00;103516;1289;1013463;-72
2023/06/19 03:40:48;;;;;;;16.30;10.80;;;;;;;-128.00;-1.00;-1.00;103568;1289;1012337;-72
2023/06/19 03:43:35;;;;;;;15.10;9.80;;;;;;;-128.00;-1.00;-1.00;103418;1290;1012943;-72
2023/06/19 03:46:23;;;;;;;17.00;10.00;;;;;;;-128.00;-1.00;-1.00;103676;1291;1009170;-69
2023/06/19 03:49:09;;;;;;;18.10;11.10;;;;;;;-128.00;-1.00;-1.00;103808;1290;1010397;-69
2023/06/19 03:51:55;;;;;;;19.40;10.70;;;;;;;-128.00;-1.00;-1.00;103661;1289;1012962;-69
2023/06/19 03:54:43;;;;;;;16.50;10.40;;;;;;;-128.00;-1.00;-1.00;103485;1290;1013616;-70
2023/06/19 03:57:29;;;;;;;14.40;9.90;;;;;;;-128.00;-1.00;-1.00;103549;1290;1013365;-72
2023/06/19 04:00:18;;;;;;;15.50;9.50;;;;;;;-128.00;-1.00;-1.00;103418;1291;1009381;-71
2023/06/19 04:03:04;;;;;;;14.20;8.50;;;;;;;-128.00;-1.00;-1.00;103401;1293;1010779;-72
2023/06/19 04:05:50;;;;;;;12.40;7.20;;;;;;;-128.00;-1.00;-1.00;103303;1293;1011968;-73
2023/06/19 04:08:37;;;;;;;15.10;9.90;;;;;;;-128.00;-1.00;-1.00;103546;1294;1012337;-71
2023/06/19 04:11:23;;;;;;;15.30;9.40;;;;;;;-128.00;-1.00;-1.00;103474;1293;1013158;-68
2023/06/19 04:14:10;;;;;;;14.80;9.60;;;;;;;-128.00;-1.00;-1.00;103299;1293;1010310;-72
2023/06/19 04:16:57;;;;;;;15.80;9.60;;;;;;;-128.00;-1.00;-1.00;103365;1293;1011465;-69
2023/06/19 04:19:43;;;;;;;13.70;8.90;;;;;;;-128.00;-1.00;-1.00;103226;1292;1013009;-73
2023/06/19 04:22:29;;;;;;;13.50;8.60;;;;;;;-128.00;-1.00;-1.00;103422;1293;1013226;-74
2023/06/19 04:25:17;;;;;;;13.30;8.70;;;;;;;-128.00;-1.00;-1.00;103330;1293;1012747;-70
2023/06/19 04:28:04;;;;;;;16.00;7.80;;;;;;;-128.00;-1.00;-1.00;103352;1293;1009938;-70
2023/06/19 04:30:59;;;;;;;13.80;9.20;;;;;;;-128.00;-1.00;-1.00;103437;1293;1011983;-71
2023/06/19 04:33:46;;;;;;;14.00;8.80;;;;;;;-128.00;-1.00;-1.00;103462;1289;1013924;-72
2023/06/19 04:36:33;;;;;;;14.10;8.60;;;;;;;-128.00;-1.00;-1.00;103863;1293;1011642;-74
2023/06/19 04:39:19;;;;;;;14.20;8.10;;;;;;;-128.00;-1.00;-1.00;103624;1291;1013116;-70
2023/06/19 04:42:06;;;;;;;12.90;7.70;;;;;;;-128.00;-1.00;-1.00;103919;1288;1009365;-71
2023/06/19 04:44:55;;;;;;;13.50;8.10;;;;;;;-128.00;-1.00;-1.00;103777;1288;1011028;-73
2023/06/19 04:47:44;;;;;;;12.50;7.90;;;;;;;-128.00;-1.00;-1.00;103677;1290;1012727;-73
2023/06/19 04:50:40;;;;;;;12.30;7.40;;;;;;;-128.00;-1.00;-1.00;103842;1288;1012447;-70
2023/06/19 04:53:27;;;;;;;12.10;7.10;;;;;;;-128.00;-1.00;-1.00;103759;1288;1013338;-72
2023/06/19 04:56:14;;;;;;;11.30;7.00;;;;;;;-128.00;-1.00;-1.00;103825;1288;1009924;-74
2023/06/19 04:59:02;;;;;;;10.10;6.00;;;;;;;-128.00;-1.00;-1.00;103764;1288;1010613;-74
2023/06/19 05:01:48;;;;;;;10.30;6.20;;;;;;;-128.00;-1.00;-1.00;103930;1288;1013222;-73
2023/06/19 05:04:35;;;;;;;10.20;6.40;;;;;;;-128.00;-1.00;-1.00;103643;1288;1012682;-72
2023/06/19 05:07:31;;;;;;;14.70;5.90;;;;;;;-128.00;-1.00;-1.00;103635;1288;1012365;-69
2023/06/19 05:10:19;;;;;;;9.40;5.60;;;;;;;-128.00;-1.00;-1.00;103796;1288;1009257;-73
2023/06/19 05:13:05;;;;;;;9.90;5.50;;;;;;;-128.00;-1.00;-1.00;103800;1288;1011040;-73
2023/06/19 05:15:52;;;;;;;10.10;5.90;;;;;;;-128.00;-1.00;-1.00;103789;1291;1012652;-68
2023/06/19 05:18:43;;;;;;;10.20;5.70;;;;;;;-128.00;-1.00;-1.00;103617;1290;1013542;-68
2023/06/19 05:21:32;;;;;;;10.00;5.50;;;;;;;-128.00;-1.00;-1.00;103799;1289;1013033;-70
2023/06/19 05:24:18;;;;;;;9.70;5.70;;;;;;;-128.00;-1.00;-1.00;103664;1289;1010337;-71
2023/06/19 05:27:05;;;;;;;12.20;6.20;;;;;;;-128.00;-1.00;-1.00;103665;1290;1011126;-68
2023/06/19 05:29:51;;;;;;;18.00;6.30;;;;;;;-128.00;-1.00;-1.00;103707;1290;1012859;-72
2023/06/19 05:32:38;;;;;;;11.90;5.80;;;;;;;-128.00;-1.00;-1.00;103571;1293;1013005;-70
2023/06/19 05:35:25;;;;;;;11.70;5.80;;;;;;;-128.00;-1.00;-1.00;103707;1291;1013239;-73
2023/06/19 05:38:13;;;;;;;11.20;4.90;;;;;;;-128.00;-1.00;-1.00;103709;1289;1010771;-73
2023/06/19 05:41:00;;;;;;;9.20;5.30;;;;;;;-128.00;-1.00;-1.00;103430;1290;1010757;-72
2023/06/19 05:43:46;;;;;;;10.00;5.10;;;;;;;-128.00;-1.00;-1.00;103560;1291;1013038;-70
2023/06/19 05:46:33;;;;;;;11.70;5.10;;;;;;;-128.00;-1.00;-1.00;103717;1291;1012911;-71
2023/06/19 05:49:19;;;;;;;9.90;5.00;;;;;;;-128.00;-1.00;-1.00;103441;1291;1012842;-73
2023/06/19 05:52:07;;;;;;;10.40;4.80;;;;;;;-128.00;-1.00;-1.00;103711;1291;1009657;-69
2023/06/19 05:54:53;;;;;;;9.50;5.10;;;;;;;-128.00;-1.00;-1.00;103736;1291;1011589;-71
2023/06/19 05:57:40;;;;;;;7.80;4.30;;;;;;;-128.00;-1.00;-1.00;103703;1290;1012122;-72
2023/06/19 06:00:27;;;;;;;8.60;4.70;;;;;;;-128.00;-1.00;-1.00;103597;1293;1012799;-70
2023/06/19 06:03:13;;;;;;;8.60;4.00;;;;;;;-128.00;-1.00;-1.00;103600;1290;1012611;-72
2023/06/19 06:06:02;;;;;;;8.40;4.10;;;;;;;-128.00;-1.00;-1.00;103691;1291;1009488;-76
2023/06/19 06:08:51;;;;;;;9.10;5.00;;;;;;;-128.00;-1.00;-1.00;103682;1289;1011093;-72
2023/06/19 06:11:37;;;;;;;7.10;3.70;;;;;;;-128.00;-1.00;-1.00;103557;1289;1012714;-71
2023/06/19 06:14:24;;;;;;;7.70;3.80;;;;;;;-128.00;-1.00;-1.00;103947;1288;1012738;-71
2023/06/19 06:17:11;;;;;;;9.40;4.10;;;;;;;-128.00;-1.00;-1.00;103759;1289;1013301;-75
2023/06/19 06:19:58;;;;;;;8.10;3.50;;;;;;;-128.00;-1.00;-1.00;103697;1289;1010496;-75
2023/06/19 06:22:44;;;;;;;7.60;3.40;;;;;;;-128.00;-1.00;-1.00;103641;1291;1010023;-71
2023/06/19 06:25:31;;;;;;;7.40;3.30;;;;;;;-128.00;-1.00;-1.00;103714;1289;1012264;-74
2023/06/19 06:28:17;;;;;;;7.70;3.80;;;;;;;-128.00;-1.00;-1.00;103811;1288;1012608;-75
2023/06/19 06:31:04;;;;;;;7.00;3.30;;;;;;;-128.00;-1.00;-1.00;103783;1288;1013149;-72
2023/06/19 06:33:53;;;;;;;7.20;3.30;;;;;;;-128.00;-1.00;-1.00;103761;1290;1010071;-71
2023/06/19 06:36:39;;;;;;;6.80;3.20;;;;;;;-128.00;-1.00;-1.00;103675;1288;1011932;-72
2023/06/19 06:39:38;;;;;;;7.60;3.30;;;;;;;-128.00;-1.00;-1.00;103968;1288;1013408;-73
2023/06/19 06:42:25;;;;;;;10.00;3.20;;;;;;;-128.00;-1.00;-1.00;103782;1289;1013075;-73
2023/06/19 06:45:11;;;;;;;7.90;3.60;;;;;;;-128.00;-1.00;-1.00;103649;1291;1012800;-73
2023/06/19 06:47:57;;;;;;;7.10;3.40;;;;;;;-128.00;-1.00;-1.00;103628;1289;1009178;-73
2023/06/19 06:50:44;;;;;;;7.90;3.10;;;;;;;-128.00;-1.00;-1.00;103588;1290;1010833;-67
2023/06/19 06:53:31;;;;;;;9.50;3.00;;;;;;;-128.00;-1.00;-1.00;103690;1289;1012517;-75
2023/06/19 06:56:18;;;;;;;7.10;3.20;;;;;;;-128.00;-1.00;-1.00;103531;1289;1012424;-72
2023/06/19 06:59:04;;;;;;;7.10;3.60;;;;;;;-128.00;-1.00;-1.00;103498;1290;1013396;-71
2023/06/19 07:01:51;;;;;;;7.60;3.00;;;;;;;-128.00;-1.00;-1.00;103532;1289;1009826;-75
2023/06/19 07:04:37;;;;;;;8.10;3.10;;;;;;;-128.00;-1.00;-1.00;103450;1289;1011210;-74
2023/06/19 07:07:24;;;;;;;6.60;3.00;;;;;;;-128.00;-1.00;-1.00;103541;1291;1012993;-77
2023/06/19 07:10:13;;;;;;;6.10;2.70;;;;;;;-128.00;-1.00;-1.00;103593;1289;1012078;-73
2023/06/19 07:12:59;;;;;;;7.50;2.60;;;;;;;-128.00;-1.00;-1.00;103602;1291;1012790;-73
2023/06/19 07:15:46;;;;;;;9.00;3.00;;;;;;;-128.00;-1.00;-1.00;103516;1291;1009020;-72
2023/06/19 07:18:33;;;;;;;7.10;2.70;;;;;;;-128.00;-1.00;-1.00;103690;1289;1010705;-73
2023/06/19 07:21:19;;;;;;;7.40;2.80;;;;;;;-128.00;-1.00;-1.00;103816;1291;1014118;-69
2023/06/19 07:24:06;;;;;;;9.30;2.80;;;;;;;-128.00;-1.00;-1.00;103614;1289;1013111;-73
2023/06/19 07:26:53;;;;;;;7.90;2.70;;;;;;;-128.00;-1.00;-1.00;103583;1291;1013024;-73
2023/06/19 07:29:39;;;;;;;7.30;2.80;;;;;;;-128.00;-1.00;-1.00;103703;1290;1010106;-72
2023/06/19 07:32:25;;;;;;;6.10;2.80;;;;;;;-128.00;-1.00;-1.00;103547;1289;1010335;-74
2023/06/19 07:35:12;;;;;;;6.70;2.80;;;;;;;-128.00;-1.00;-1.00;103733;1289;1012109;-72
2023/06/19 07:37:58;;;;;;;7.30;2.70;;;;;;;-128.00;-1.00;-1.00;103670;1289;1012245;-73
2023/06/19 07:40:46;;;;;;;6.40;2.30;;;;;;;-128.00;-1.00;-1.00;103547;1291;1013685;-73
2023/06/19 07:43:33;;;;;;;7.10;2.50;;;;;;;-128.00;-1.00;-1.00;103562;1291;1010129;-72
2023/06/19 07:46:19;;;;;;;7.10;2.90;;;;;;;-128.00;-1.00;-1.00;103543;1289;1011148;-69
2023/06/19 07:49:06;;;;;;;12.10;3.30;;;;;;;-128.00;-1.00;-1.00;103576;1289;1012816;-70
2023/06/19 07:51:53;;;;;;;7.90;3.00;;;;;;;-128.00;-1.00;-1.00;103547;1289;1013087;-70
2023/06/19 07:54:57;;;;;;;12.00;3.10;;;;;;;-128.00;-1.00;-1.00;103561;1292;1012855;-69
2023/06/19 07:57:43;;;;;;;10.40;3.20;;;;;;;-128.00;-1.00;-1.00;103555;1289;1009823;-71
2023/06/19 08:00:29;;;;;;;8.50;3.40;;;;;;;-128.00;-1.00;-1.00;103742;1289;1011469;-71
2023/06/19 08:03:15;;;;;;;10.50;3.30;;;;;;;-128.00;-1.00;-1.00;103754;1289;1012685;-75
2023/06/19 08:06:02;;;;;;;11.60;3.40;;;;;;;-128.00;-1.00;-1.00;103772;1288;1013128;-71
2023/06/19 08:08:48;;;;;;;8.90;4.50;;;;;;;-128.00;-1.00;-1.00;103632;1288;1012123;-70
2023/06/19 08:11:37;;;;;;;10.30;5.10;;;;;;;-128.00;-1.00;-1.00;103854;1288;1009504;-72
2023/06/19 08:14:23;;;;;;;8.20;4.60;;;;;;;-128.00;-1.00;-1.00;103610;1291;1011003;-71
2023/06/19 08:17:09;;;;;;;12.20;4.80;;;;;;;-128.00;-1.00;-1.00;103548;1291;1012356;-70
2023/06/19 08:19:55;;;;;;;9.10;4.20;;;;;;;-128.00;-1.00;-1.00;103607;1291;1012539;-69
2023/06/19 08:22:42;;;;;;;11.90;5.10;;;;;;;-128.00;-1.00;-1.00;103745;1291;1013457;-68
2023/06/19 08:25:28;;;;;;;11.20;5.30;;;;;;;-128.00;-1.00;-1.00;103610;1289;1010425;-69
2023/06/19 08:28:14;;;;;;;11.40;5.80;;;;;;;-128.00;-1.00;-1.00;103621;1290;1011212;-70
2023/06/19 08:31:00;;;;;;;10.20;5.20;;;;;;;-128.00;-1.00;-1.00;103809;1288;1012248;-70
2023/06/19 08:33:50;;;;;;;11.10;5.20;;;;;;;-128.00;-1.00;-1.00;104052;1288;1013139;-70
2023/06/19 08:36:40;;;;;;;13.60;5.40;;;;;;;-128.00;-1.00;-1.00;103873;1288;1012744;-71
2023/06/19 08:39:26;;;;;;;9.90;5.40;;;;;;;-128.00;-1.00;-1.00;103779;1288;1009549;-71
2023/06/19 08:42:13;;;;;;;9.50;5.30;;;;;;;-128.00;-1.00;-1.00;103833;1289;1011324;-72
2023/06/19 08:45:00;;;;;;;9.00;5.10;;;;;;;-128.00;-1.00;-1.00;103829;1289;1012719;-68
2023/06/19 08:47:49;;;;;;;10.90;5.20;;;;;;;-128.00;-1.00;-1.00;103731;1295;1012193;-69
2023/06/19 08:50:35;;;;;;;10.50;5.20;;;;;;;-128.00;-1.00;-1.00;103888;1289;1012890;-72
2023/06/19 08:53:22;;;;;;;10.20;4.90;;;;;;;-128.00;-1.00;-1.00;103738;1289;1009354;-70
2023/06/19 08:56:09;;;;;;;13.00;5.90;;;;;;;-128.00;-1.00;-1.00;103680;1288;1010856;-71
2023/06/19 08:58:55;;;;;;;9.60;5.60;;;;;;;-128.00;-1.00;-1.00;103955;1289;1013661;-72
2023/06/19 09:01:53;;;;;;;11.30;5.70;;;;;;;-128.00;-1.00;-1.00;103798;1288;1012447;-70
2023/06/19 09:04:45;;;;;;;9.00;5.10;;;;;;;-128.00;-1.00;-1.00;103744;1291;1013488;-70
2023/06/19 09:07:35;;;;;;;9.60;5.60;;;;;;;-128.00;-1.00;-1.00;103716;1289;1009651;-67
2023/06/19 09:10:23;;;;;;;9.40;5.50;;;;;;;-128.00;-1.00;-1.00;103770;1289;1011375;-68
2023/06/19 09:13:10;;;;;;;11.30;5.30;;;;;;;-128.00;-1.00;-1.00;103692;1289;1012343;-69
2023/06/19 09:16:03;;;;;;;11.70;5.20;;;;;;;-128.00;-1.00;-1.00;103636;1294;1012044;-70
2023/06/19 09:18:49;;;;;;;11.30;5.70;;;;;;;-128.00;-1.00;-1.00;103606;1294;1012425;-68
2023/06/19 09:21:38;;;;;;;10.40;5.50;;;;;;;-128.00;-1.00;-1.00;103729;1291;1009134;-69
2023/06/19 09:24:36;;;;;;;9.40;5.70;;;;;;;-128.00;-1.00;-1.00;103627;1289;1010854;-71
2023/06/19 09:27:23;;;;;;;9.60;5.30;;;;;;;-128.00;-1.00;-1.00;103682;1289;1012052;-72
2023/06/19 09:30:16;;;;;;;10.20;5.30;;;;;;;-128.00;-1.00;-1.00;103716;1289;1013434;-73
2023/06/19 09:33:08;;;;;;;9.50;5.40;;;;;;;-128.00;-1.00;-1.00;103609;1291;1012093;-73
2023/06/19 09:35:56;;;;;;;;;;;;;;;-128.00;-1.00;-1.00;103718;1291;1010508;-73
2023/06/19 09:38:46;;;;;;;10.80;5.50;;;;;;;-128.00;-1.00;-1.00;103676;1289;1011795;-72
2023/06/19 09:41:36;;;;;;;11.70;5.20;;;;;;;-128.00;-1.00;-1.00;103761;1291;1012407;-73
2023/06/19 09:44:24;;;;;;;11.50;6.10;;;;;;;-128.00;-1.00;-1.00;103646;1289;1012463;-72
2023/06/19 09:47:24;;;;;;;11.60;5.80;;;;;;;-128.00;-1.00;-1.00;103605;1294;1012867;-75
2023/06/19 09:50:16;;;;;;;11.00;5.90;;;;;;;-128.00;-1.00;-1.00;103527;1291;1010461;-74
2023/06/19 09:53:07;;;;;;;9.90;5.70;;;;;;;-128.00;-1.00;-1.00;103610;1289;1010070;-72
2023/06/19 09:55:55;;;;;;;12.90;5.30;;;;;;;-128.00;-1.00;-1.00;103757;1289;1013259;-74
2023/06/19 09:58:44;;;;;;;11.60;5.00;;;;;;;-128.00;-1.00;-1.00;103726;1289;1012936;-73
2023/06/19 10:01:32;;;;;;;10.20;5.40;;;;;;;-128.00;-1.00;-1.00;103576;1289;1012318;-74
2023/06/19 10:04:18;;;;;;;12.20;5.50;;;;;;;-128.00;-1.00;-1.00;103619;1288;1009672;-72
2023/06/19 10:07:16;;;;;;;9.20;5.20;;;;;;;-128.00;-1.00;-1.00;103770;1288;1010799;-77
2023/06/19 10:10:06;;;;;;;12.50;5.20;;;;;;;-128.00;-1.00;-1.00;103903;1288;1012933;-75
2023/06/19 10:12:59;;;;;;;10.10;5.10;;;;;;;-128.00;-1.00;-1.00;103808;1290;1012481;-75
2023/06/19 10:15:47;;;;;;;8.80;4.40;;;;;;;-128.00;-1.00;-1.00;103761;1288;1012364;-76
2023/06/19 10:18:46;;;;;;;12.30;4.90;;;;;;;-128.00;-1.00;-1.00;103579;1288;1010471;-75
2023/06/19 10:21:49;;;;;;;13.10;4.90;;;;;;;-128.00;-1.00;-1.00;103911;1288;1011206;-75
2023/06/19 10:24:36;;;;;;;9.80;5.80;;;;;;;-128.00;-1.00;-1.00;103783;1288;1012848;-71
2023/06/19 10:27:25;;;;;;;12.20;5.10;;;;;;;-128.00;-1.00;-1.00;103910;1289;1012108;-74
2023/06/19 10:30:20;;;;;;;9.20;4.60;;;;;;;-128.00;-1.00;-1.00;103771;1288;1012551;-76
2023/06/19 10:33:07;;;;;;;9.30;8.20;;;;;;;-128.00;-1.00;-1.00;103872;1288;1009902;-75
2023/06/19 10:35:54;;;;;;;9.10;4.80;;;;;;;-128.00;-1.00;-1.00;103758;1288;1011898;-77
2023/06/19 10:38:41;;;;;;;9.90;4.60;;;;;;;-128.00;-1.00;-1.00;103893;1288;1012771;-75
2023/06/19 10:41:31;;;;;;;9.50;5.20;;;;;;;-128.00;-1.00;-1.00;103670;1288;1012435;-73
2023/06/19 10:44:23;;;;;;;9.40;4.30;;;;;;;-128.00;-1.00;-1.00;103542;1288;1013430;-75
2023/06/19 10:47:10;;;;;;;9.00;4.80;;;;;;;-128.00;-1.00;-1.00;103485;1290;1010306;-76
2023/06/19 10:49:59;;;;;;;9.80;4.20;;;;;;;-128.00;-1.00;-1.00;103624;1289;1011783;-74
2023/06/19 20:20:01;;;;;;;15.60;7.70;;;;;;;16.99;88.32;99866.56;103374;1283;599917;-65
2023/06/19 20:22:50;;;;;;;12.70;7.80;;;;;;;17.00;88.57;99869.83;104979;1272;60077;-66
2023/06/19 20:25:38;;;;;;;12.50;7.90;;;;;;;17.03;88.46;99873.52;105040;1269;59361;-67
2023/06/19 20:28:27;;;;;;;12.50;7.80;;;;;;;17.06;88.60;99874.91;105529;1260;71295;-68
2023/06/19 20:31:17;;;;;;;16.00;8.50;;;;;;;17.11;88.38;99873.14;105551;1259;69289;-68
2023/06/19 20:34:06;;;;;;;12.80;7.80;;;;;;;17.15;88.15;99874.13;105514;1263;295301;-66
2023/06/19 20:36:55;;;;;;;14.60;7.40;;;;;;;17.18;88.11;99875.39;105392;1264;59334;-67
2023/06/19 20:39:44;;;;;;;11.70;7.80;;;;;;;17.21;88.03;99874.39;105564;1257;61626;-68
2023/06/19 20:42:31;;;;;;;12.80;7.80;;;;;;;17.22;87.66;99878.02;105450;1257;71247;-67
2023/06/19 20:45:25;;;;;;;15.30;8.30;;;;;;;17.19;87.94;99881.02;105663;1257;66341;-66
2023/06/19 20:48:14;;;;;;;12.00;7.60;;;;;;;17.17;87.98;99881.66;106099;1260;74215;-68
2023/06/19 20:51:03;;;;;;;12.30;7.40;;;;;;;17.15;88.10;99885.48;105457;1264;59527;-66
2023/06/19 20:53:51;;;;;;;13.30;8.00;;;;;;;17.14;87.66;99884.80;105487;1257;59181;-66
2023/06/19 20:56:39;;;;;;;13.30;7.40;;;;;;;17.05;87.29;99879.65;105687;1257;72021;-65
2023/06/19 20:59:28;;;;;;;12.50;7.50;;;;;;;16.97;87.65;99888.11;105541;1259;68495;-68
2023/06/19 21:02:15;;;;;;;12.50;8.20;;;;;;;16.92;87.90;99881.52;105515;1258;73571;-65
2023/06/19 21:05:05;;;;;;;14.20;8.50;;;;;;;16.87;87.89;99882.83;106208;1257;59594;-67
2023/06/19 21:07:53;;;;;;;15.10;8.40;;;;;;;16.83;88.17;99881.96;109165;1257;59090;-67
2023/06/19 21:10:43;;;;;;;13.70;10.10;;;;;;;16.81;88.39;99881.66;109709;1251;71481;-66
2023/06/19 21:13:31;;;;;;;22.30;16.60;;;;;;;16.78;88.59;99880.55;109658;1251;67654;-66
2023/06/19 21:16:18;;;;;;;19.40;11.40;;;;;;;16.76;88.70;99879.92;109649;1251;72668;-66
2023/06/19 21:19:06;;;;;;;16.10;9.70;;;;;;;16.73;88.59;99877.58;109684;1251;59687;-67
2023/06/19 21:21:54;;;;;;;15.20;10.00;;;;;;;16.71;88.90;99878.10;109562;1251;60472;-68
2023/06/19 21:24:42;;;;;;;15.50;10.00;;;;;;;16.70;88.82;99876.63;109641;1251;71730;-67
2023/06/19 21:27:30;;;;;;;16.30;10.50;;;;;;;16.69;88.79;99879.00;109688;1255;68653;-68
2023/06/19 21:30:19;;;;;;;17.30;10.20;;;;;;;16.70;88.91;99881.05;109530;1251;74528;-66
2023/06/19 21:33:06;;;;;;;16.20;9.40;;;;;;;16.72;88.91;99882.70;109513;1251;56876;-64
2023/06/19 21:35:55;;;;;;;15.20;10.00;;;;;;;16.73;88.77;99885.85;109423;1251;62491;-66
2023/06/19 21:38:43;;;;;;;13.60;9.70;;;;;;;16.74;88.71;99884.98;109631;1251;69927;-66
2023/06/19 21:41:31;;;;;;;14.20;9.20;;;;;;;16.70;88.66;99886.42;109685;1251;68995;-65
2023/06/19 21:44:19;;;;;;;13.80;8.80;;;;;;;16.70;88.92;99888.28;109624;1251;72703;-64
2023/06/19 21:47:06;;;;;;;15.50;9.20;;;;;;;16.70;89.00;99888.17;109651;1251;57903;-66
2023/06/19 21:49:54;;;;;;;14.90;9.10;;;;;;;16.72;88.86;99887.91;109505;1256;60296;-65
2023/06/19 21:52:43;;;;;;;16.90;9.20;;;;;;;16.74;88.62;99890.17;109688;1251;70252;-64
2023/06/19 21:55:31;;;;;;;13.70;8.50;;;;;;;16.74;88.58;99892.48;109642;1251;66866;-64
2023/06/19 21:58:21;;;;;;;14.20;8.60;;;;;;;16.77;88.73;99893.38;109517;1255;72399;-66
2023/06/19 22:01:09;;;;;;;15.10;9.30;;;;;;;16.79;88.55;99890.98;109501;1251;56931;-64
2023/06/19 22:04:00;;;;;;;13.20;8.90;;;;;;;16.80;88.59;99891.61;109456;1251;60077;-66
2023/06/19 22:06:54;;;;;;;14.30;9.40;;;;;;;16.82;88.50;99888.23;109656;1251;70591;-64
2023/06/19 22:09:42;;;;;;;14.50;8.90;;;;;;;16.80;88.85;99889.13;109686;1251;67643;-66
2023/06/19 22:12:30;;;;;;;14.10;8.20;;;;;;;16.82;88.94;99887.81;109650;1251;71447;-64
2023/06/19 22:15:18;;;;;;;14.80;9.30;;;;;;;16.85;88.95;99887.69;109542;1251;59687;-65